createdAt,value
2023-03-07T00:00:45.459Z,3.90
2023-03-07T00:03:12.625Z,2.22
2023-03-07T00:05:39.551Z,4.55
2023-03-07T00:08:06.296Z,5.53
2023-03-07T00:10:33.441Z,5.80
2023-03-07T00:13:00.149Z,3.43
2023-03-07T00:15:26.584Z,6.07
2023-03-07T00:17:52.967Z,4.82
2023-03-07T00:20:19.589Z,4.97
2023-03-07T00:22:46.001Z,4.07
2023-03-07T00:25:12.818Z,2.40
2023-03-07T00:27:39.416Z,5.35
2023-03-07T00:30:05.993Z,5.32
2023-03-07T00:32:32.497Z,4.97
2023-03-07T00:34:59.625Z,4.95
2023-03-07T00:37:26.165Z,4.70
2023-03-07T00:39:52.554Z,3.70
2023-03-07T00:42:19.005Z,6.05
2023-03-07T00:44:45.439Z,3.83
2023-03-07T00:47:11.802Z,4.43
2023-03-07T00:49:38.289Z,3.97
2023-03-07T00:52:04.764Z,3.70
2023-03-07T00:54:31.162Z,4.85
2023-03-07T00:56:57.662Z,4.82
2023-03-07T00:59:24.087Z,3.33
2023-03-07T01:01:50.521Z,6.30
2023-03-07T01:04:17.008Z,7.07
2023-03-07T01:06:43.495Z,3.58
2023-03-07T01:09:10.313Z,3.45
2023-03-07T01:11:37.134Z,4.57
2023-03-07T01:14:05.217Z,3.80
2023-03-07T01:16:33.130Z,5.68
2023-03-07T01:19:01.040Z,3.13
2023-03-07T01:21:32.341Z,6.03
2023-03-07T01:23:58.929Z,4.15
2023-03-07T01:26:26.998Z,4.27
2023-03-07T01:28:54.589Z,4.47
2023-03-07T01:31:21.076Z,4.20
2023-03-07T01:33:48.632Z,3.58
2023-03-07T01:36:19.118Z,4.60
2023-03-07T01:38:46.172Z,5.27
2023-03-07T01:41:12.583Z,4.10
2023-03-07T01:43:39.729Z,4.00
2023-03-07T01:46:24.709Z,3.58
2023-03-07T01:48:57.050Z,3.30
2023-03-07T01:51:23.798Z,2.57
2023-03-07T01:53:51.479Z,3.10
2023-03-07T01:56:17.952Z,3.72
2023-03-07T01:58:45.337Z,3.85
2023-03-07T02:01:12.854Z,4.57
2023-03-07T02:03:43.816Z,3.80
2023-03-07T02:06:11.655Z,5.97
2023-03-07T02:08:38.877Z,3.28
2023-03-07T02:11:06.174Z,3.03
2023-03-07T02:13:32.838Z,5.60
2023-03-07T02:16:00.577Z,3.70
2023-03-07T02:18:28.231Z,7.70
2023-03-07T02:20:54.608Z,4.32
2023-03-07T02:23:26.260Z,3.50
2023-03-07T02:25:52.585Z,3.15
2023-03-07T02:28:18.939Z,3.17
2023-03-07T02:30:58.864Z,3.85
2023-03-07T02:33:25.284Z,5.57
2023-03-07T02:35:55.249Z,4.82
2023-03-07T02:38:23.045Z,8.77
2023-03-07T02:40:51.110Z,3.83
2023-03-07T02:43:17.729Z,5.05
2023-03-07T02:45:44.271Z,5.47
2023-03-07T02:48:10.780Z,6.13
2023-03-07T02:50:37.323Z,5.82
2023-03-07T02:53:03.899Z,4.73
2023-03-07T02:55:30.389Z,5.32
2023-03-07T02:57:56.860Z,3.50
2023-03-07T03:00:23.523Z,4.00
2023-03-07T03:02:50.075Z,4.28
2023-03-07T03:05:16.609Z,3.40
2023-03-07T03:07:43.253Z,6.78
2023-03-07T03:10:10.179Z,5.53
2023-03-07T03:12:36.781Z,6.90
2023-03-07T03:15:03.365Z,5.40
2023-03-07T03:17:29.751Z,3.53
2023-03-07T03:19:56.125Z,3.13
2023-03-07T03:22:22.559Z,4.78
2023-03-07T03:24:49.184Z,6.13
2023-03-07T03:27:15.621Z,3.88
2023-03-07T03:29:42.155Z,3.50
2023-03-07T03:32:08.614Z,6.43
2023-03-07T03:34:35.879Z,6.35
2023-03-07T03:37:02.441Z,4.60
2023-03-07T03:39:28.911Z,4.57
2023-03-07T03:41:55.298Z,5.60
2023-03-07T03:44:21.816Z,4.82
2023-03-07T03:46:48.660Z,4.47
2023-03-07T03:49:15.245Z,4.32
2023-03-07T03:51:41.724Z,5.25
2023-03-07T03:54:08.482Z,4.17
2023-03-07T03:56:34.883Z,6.72
2023-03-07T03:59:01.303Z,3.30
2023-03-07T04:01:28.677Z,5.65
2023-03-07T04:03:55.220Z,4.78
2023-03-07T04:06:25.130Z,4.57
2023-03-07T04:08:52.181Z,5.15
2023-03-07T04:11:19.369Z,5.30
2023-03-07T04:13:46.345Z,64.88
2023-03-07T04:16:12.879Z,3.50
2023-03-07T04:18:39.305Z,6.13
2023-03-07T04:21:05.909Z,5.88
2023-03-07T04:23:32.545Z,6.38
2023-03-07T04:26:00.176Z,4.15
2023-03-07T04:28:28.214Z,6.32
2023-03-07T04:30:54.909Z,6.63
2023-03-07T04:33:21.309Z,6.80
2023-03-07T04:35:47.734Z,5.22
2023-03-07T04:38:15.285Z,8.02
2023-03-07T04:40:41.767Z,6.18
2023-03-07T04:43:08.245Z,7.30
2023-03-07T04:45:35.569Z,6.47
2023-03-07T04:48:02.010Z,7.45
2023-03-07T04:50:28.416Z,12.60
2023-03-07T04:52:54.813Z,7.20
2023-03-07T04:55:21.359Z,7.73
2023-03-07T04:57:47.900Z,7.68
2023-03-07T05:00:14.555Z,8.73
2023-03-07T05:02:40.943Z,11.23
2023-03-07T05:05:07.723Z,6.80
2023-03-07T05:07:34.103Z,11.77
2023-03-07T05:10:00.508Z,5.05
2023-03-07T05:12:27.224Z,12.13
2023-03-07T05:14:53.595Z,6.15
2023-03-07T05:17:20.301Z,6.88
2023-03-07T05:19:46.751Z,4.40
2023-03-07T05:22:13.096Z,7.32
2023-03-07T05:24:39.492Z,4.70
2023-03-07T05:27:05.997Z,7.28
2023-03-07T05:29:32.373Z,6.43
2023-03-07T05:31:58.720Z,4.50
2023-03-07T05:34:25.186Z,6.32
2023-03-07T05:36:51.623Z,5.40
2023-03-07T05:39:18.009Z,7.07
2023-03-07T05:41:44.436Z,5.30
2023-03-07T05:44:10.930Z,4.67
2023-03-07T05:46:37.346Z,6.47
2023-03-07T05:49:03.885Z,4.07
2023-03-07T05:51:30.249Z,4.40
2023-03-07T05:53:56.626Z,6.05
2023-03-07T05:56:23.147Z,8.90
2023-03-07T05:58:49.543Z,5.53
2023-03-07T06:01:15.939Z,5.78
2023-03-07T06:03:42.449Z,5.32
2023-03-07T06:06:08.960Z,12.05
2023-03-07T06:08:35.451Z,8.10
2023-03-07T06:11:01.982Z,7.43
2023-03-07T06:13:28.585Z,5.88
2023-03-07T06:15:55.641Z,6.68
2023-03-07T06:18:23.921Z,7.05
2023-03-07T06:21:03.444Z,6.60
2023-03-07T06:23:32.010Z,6.80
2023-03-07T06:25:59.521Z,9.60
2023-03-07T06:28:26.151Z,7.82
2023-03-07T06:30:53.178Z,11.63
2023-03-07T06:33:20.150Z,6.38
2023-03-07T06:35:46.775Z,6.28
2023-03-07T06:38:15.773Z,7.88
2023-03-07T06:40:42.994Z,8.20
2023-03-07T06:43:12.094Z,7.32
2023-03-07T06:45:38.809Z,7.30
2023-03-07T06:48:05.422Z,6.20
2023-03-07T06:50:35.379Z,8.52
2023-03-07T06:53:02.399Z,8.93
2023-03-07T06:55:28.910Z,6.00
2023-03-07T06:57:55.388Z,7.90
2023-03-07T07:00:22.108Z,8.50
2023-03-07T07:02:49.024Z,8.40
2023-03-07T07:05:15.656Z,7.20
2023-03-07T07:07:42.196Z,9.18
2023-03-07T07:10:10.599Z,6.28
2023-03-07T07:12:37.417Z,8.30
2023-03-07T07:15:04.453Z,9.02
2023-03-07T07:17:31.974Z,7.43
2023-03-07T07:19:58.445Z,6.65
2023-03-07T07:22:25.156Z,7.22
2023-03-07T07:24:51.716Z,7.93
2023-03-07T07:27:18.474Z,8.13
2023-03-07T07:29:45.291Z,7.63
2023-03-07T07:32:12.016Z,6.72
2023-03-07T07:34:38.718Z,6.15
2023-03-07T07:37:05.405Z,7.10
2023-03-07T07:39:32.059Z,6.80
2023-03-07T07:41:58.598Z,7.93
2023-03-07T07:44:25.335Z,8.10
2023-03-07T07:46:51.984Z,6.80
2023-03-07T07:49:18.828Z,6.10
2023-03-07T07:51:46.201Z,5.97
2023-03-07T07:54:12.753Z,5.78
2023-03-07T07:56:39.354Z,6.07
2023-03-07T07:59:05.905Z,6.60
2023-03-07T08:01:32.583Z,8.43
2023-03-07T08:03:59.190Z,7.63
2023-03-07T08:06:27.929Z,7.90
2023-03-07T08:08:55.392Z,6.88
2023-03-07T08:11:23.104Z,5.55
2023-03-07T08:13:50.789Z,7.17
2023-03-07T08:16:22.029Z,6.38
2023-03-07T08:18:56.429Z,6.47
2023-03-07T08:21:24.424Z,7.30
2023-03-07T08:23:51.599Z,6.53
2023-03-07T08:26:18.247Z,8.97
2023-03-07T08:28:45.084Z,6.75
2023-03-07T08:31:14.939Z,9.85
2023-03-07T08:33:42.206Z,10.43
2023-03-07T08:36:09.358Z,7.25
2023-03-07T08:38:36.185Z,6.30
2023-03-07T08:41:08.211Z,6.47
2023-03-07T08:43:36.748Z,6.00
2023-03-07T08:46:04.050Z,7.00
2023-03-07T08:48:31.410Z,9.43
2023-03-07T08:50:57.971Z,7.90
2023-03-07T08:53:24.589Z,8.18
2023-03-07T08:55:51.365Z,6.18
2023-03-07T08:58:17.862Z,8.43
2023-03-07T09:00:44.492Z,6.40
2023-03-07T09:03:11.096Z,9.20
2023-03-07T09:05:38.563Z,6.57
2023-03-07T09:08:06.730Z,9.02
2023-03-07T09:10:34.704Z,6.97
2023-03-07T09:13:01.248Z,7.97
2023-03-07T09:15:27.845Z,5.80
2023-03-07T09:17:54.508Z,7.72
2023-03-07T09:20:21.080Z,8.55
2023-03-07T09:22:47.789Z,8.43
2023-03-07T09:25:14.761Z,8.30
2023-03-07T09:27:41.335Z,7.75
2023-03-07T09:30:08.481Z,8.82
2023-03-07T09:32:35.268Z,8.10
2023-03-07T09:35:01.792Z,8.57
2023-03-07T09:37:28.395Z,8.27
2023-03-07T09:39:55.104Z,7.32
2023-03-07T09:42:42.067Z,5.43
2023-03-07T09:45:42.746Z,9.50
2023-03-07T09:48:25.130Z,6.53
2023-03-07T09:51:01.904Z,7.63
2023-03-07T09:53:43.479Z,6.72
2023-03-07T09:56:20.190Z,7.75
2023-03-07T09:58:48.954Z,5.57
2023-03-07T10:01:21.643Z,8.50
2023-03-07T10:04:04.078Z,7.00
2023-03-07T10:06:39.540Z,5.20
2023-03-07T10:09:19.793Z,5.35
2023-03-07T10:12:14.140Z,9.57
2023-03-07T10:14:40.598Z,5.50
2023-03-07T10:17:44.790Z,7.35
2023-03-07T10:20:35.916Z,7.88
2023-03-07T10:23:17.302Z,4.97
2023-03-07T10:26:19.205Z,9.85
2023-03-07T10:28:46.541Z,5.18
2023-03-07T10:31:31.444Z,8.07
2023-03-07T10:33:58.725Z,7.72
2023-03-07T10:36:34.099Z,5.03
2023-03-07T10:39:06.611Z,6.97
2023-03-07T10:41:33.086Z,6.40
2023-03-07T10:43:59.791Z,5.22
2023-03-07T10:46:28.625Z,5.15
2023-03-07T10:49:14.798Z,6.47
2023-03-07T10:51:54.654Z,4.03
2023-03-07T10:54:30.022Z,5.80
2023-03-07T10:57:12.925Z,4.10
2023-03-07T10:59:41.810Z,6.32
2023-03-07T11:02:27.398Z,4.65
2023-03-07T11:04:54.576Z,5.28
2023-03-07T11:07:31.569Z,4.40
2023-03-07T11:09:58.889Z,4.20
2023-03-07T11:12:26.086Z,9.32
2023-03-07T11:14:56.746Z,5.07
2023-03-07T11:17:23.106Z,5.15
2023-03-07T11:19:53.404Z,5.55
2023-03-07T11:22:24.521Z,4.13
2023-03-07T11:24:54.025Z,5.68
2023-03-07T11:27:33.109Z,4.82
2023-03-07T11:30:17.842Z,4.90
2023-03-07T11:33:16.717Z,4.43
2023-03-07T11:35:45.887Z,5.37
2023-03-07T11:38:17.233Z,6.97
2023-03-07T11:40:54.916Z,3.78
2023-03-07T11:43:22.829Z,4.43
2023-03-07T11:46:10.822Z,6.03
2023-03-07T11:48:37.197Z,3.37
2023-03-07T11:51:06.200Z,5.63
2023-03-07T11:53:57.548Z,3.90
2023-03-07T11:56:36.327Z,4.18
2023-03-07T11:59:18.175Z,4.68
2023-03-07T12:01:55.876Z,6.07
2023-03-07T12:04:28.131Z,4.68
2023-03-07T12:06:54.539Z,4.68
2023-03-07T12:09:44.109Z,4.95
2023-03-07T12:12:36.359Z,7.28
2023-03-07T12:15:21.761Z,7.07
2023-03-07T12:17:51.056Z,5.85
2023-03-07T12:20:29.569Z,5.65
2023-03-07T12:23:02.608Z,5.05
2023-03-07T12:25:52.146Z,5.85
2023-03-07T12:28:21.288Z,7.13
2023-03-07T12:30:57.323Z,6.80
2023-03-07T12:33:42.660Z,6.97
2023-03-07T12:36:11.644Z,7.55
2023-03-07T12:38:45.890Z,6.18
2023-03-07T12:41:12.269Z,9.40
2023-03-07T12:43:43.837Z,4.53
2023-03-07T12:46:42.742Z,10.63
2023-03-07T12:49:24.525Z,6.85
2023-03-07T12:51:54.825Z,7.13
2023-03-07T12:54:23.353Z,6.57
2023-03-07T12:56:59.549Z,6.00
2023-03-07T12:59:26.741Z,7.85
2023-03-07T13:01:55.898Z,9.50
2023-03-07T13:04:25.193Z,8.77
2023-03-07T13:06:53.530Z,7.67
2023-03-07T13:09:27.546Z,11.75
2023-03-07T13:12:08.343Z,9.63
2023-03-07T13:14:42.344Z,8.82
2023-03-07T13:17:09.514Z,10.38
2023-03-07T13:19:35.882Z,13.07
2023-03-07T13:22:03.149Z,10.00
2023-03-07T13:24:34.129Z,7.78
2023-03-07T13:27:01.990Z,9.30
2023-03-07T13:29:47.261Z,5.78
2023-03-07T13:32:32.302Z,9.73
2023-03-07T13:34:58.896Z,8.77
2023-03-07T13:37:44.156Z,9.00
2023-03-07T13:40:30.023Z,10.15
2023-03-07T13:42:57.096Z,11.57
2023-03-07T13:45:39.062Z,9.97
2023-03-07T13:48:33.369Z,11.27
2023-03-07T13:50:59.728Z,14.35
2023-03-07T13:53:28.984Z,12.43
2023-03-07T13:56:21.688Z,11.07
2023-03-07T13:58:56.794Z,9.13
2023-03-07T14:01:32.570Z,14.43
2023-03-07T14:04:02.344Z,15.40
2023-03-07T14:06:40.647Z,13.43
2023-03-07T14:09:14.373Z,10.80
2023-03-07T14:12:06.138Z,11.63
2023-03-07T14:15:05.867Z,12.95
2023-03-07T14:17:49.023Z,13.18
2023-03-07T14:20:37.137Z,11.23
2023-03-07T14:23:24.093Z,17.88
2023-03-07T14:26:00.657Z,14.20
2023-03-07T14:28:28.443Z,16.63
2023-03-07T14:31:01.157Z,14.45
2023-03-07T14:33:39.657Z,16.38
2023-03-07T14:36:19.644Z,17.33
2023-03-07T14:38:47.963Z,14.80
2023-03-07T14:41:31.633Z,17.77
2023-03-07T14:44:40.148Z,14.38
2023-03-07T14:47:45.530Z,10.90
2023-03-07T14:50:18.568Z,15.50
2023-03-07T14:52:46.704Z,20.73
2023-03-07T14:55:20.120Z,18.60
2023-03-07T14:57:52.237Z,25.23
2023-03-07T15:00:21.933Z,17.38
2023-03-07T15:02:57.285Z,15.57
2023-03-07T15:05:26.940Z,28.20
2023-03-07T15:07:53.854Z,26.08
2023-03-07T15:10:32.886Z,20.33
2023-03-07T15:13:02.311Z,18.67
2023-03-07T15:15:39.648Z,32.20
2023-03-07T15:18:12.350Z,29.17
2023-03-07T15:20:40.050Z,28.23
2023-03-07T15:23:08.089Z,26.83
2023-03-07T15:25:35.281Z,26.92
2023-03-07T15:28:05.171Z,27.48
2023-03-07T15:30:35.082Z,23.33
2023-03-07T15:33:19.614Z,31.25
2023-03-07T15:36:06.143Z,27.33
2023-03-07T15:38:33.991Z,24.52
2023-03-07T15:41:00.827Z,27.42
2023-03-07T15:43:34.824Z,24.93
2023-03-07T15:46:07.244Z,21.73
2023-03-07T15:48:37.251Z,25.27
2023-03-07T15:51:10.933Z,22.17
2023-03-07T15:53:40.050Z,29.70
2023-03-07T15:56:22.520Z,42.37
2023-03-07T15:58:50.347Z,25.75
2023-03-07T16:01:25.732Z,29.25
2023-03-07T16:03:53.781Z,33.08
2023-03-07T16:06:43.525Z,34.25
2023-03-07T16:09:15.600Z,36.43
2023-03-07T16:11:43.273Z,20.65
2023-03-07T16:14:19.102Z,24.75
2023-03-07T16:16:45.799Z,32.92
2023-03-07T16:19:12.449Z,30.35
2023-03-07T16:21:39.134Z,31.17
2023-03-07T16:24:05.956Z,38.60
2023-03-07T16:26:33.246Z,19.90
2023-03-07T16:29:01.310Z,33.08
2023-03-07T16:31:27.946Z,24.90
2023-03-07T16:33:54.529Z,36.50
2023-03-07T16:36:21.264Z,23.52
2023-03-07T16:38:47.752Z,35.67
2023-03-07T16:41:18.513Z,40.42
2023-03-07T16:43:47.349Z,36.33
2023-03-07T16:46:18.488Z,33.63
2023-03-07T16:48:45.761Z,36.08
2023-03-07T16:51:17.520Z,27.38
2023-03-07T16:53:45.256Z,38.58
2023-03-07T16:56:17.761Z,37.78
2023-03-07T16:58:45.368Z,25.07
2023-03-07T17:01:13.716Z,39.38
2023-03-07T17:03:40.920Z,37.90
2023-03-07T17:06:13.270Z,44.67
2023-03-07T17:08:40.017Z,41.03
2023-03-07T17:11:20.245Z,32.37
2023-03-07T17:13:48.069Z,50.17
2023-03-07T17:16:16.286Z,27.42
2023-03-07T17:18:43.283Z,36.35
2023-03-07T17:21:18.303Z,35.60
2023-03-07T17:23:45.671Z,31.57
2023-03-07T17:26:21.990Z,32.65
2023-03-07T17:28:50.744Z,35.67
2023-03-07T17:31:17.273Z,18.60
2023-03-07T17:33:43.871Z,22.67
2023-03-07T17:36:13.479Z,28.97
2023-03-07T17:38:40.046Z,31.25
2023-03-07T17:41:06.851Z,30.08
2023-03-07T17:43:33.623Z,22.45
2023-03-07T17:46:01.018Z,23.90
2023-03-07T17:48:27.589Z,21.27
2023-03-07T17:50:54.227Z,24.40
2023-03-07T17:53:20.744Z,22.95
2023-03-07T17:55:47.236Z,20.83
2023-03-07T17:58:13.745Z,14.98
2023-03-07T18:00:40.257Z,15.53
2023-03-07T18:03:06.974Z,11.25
2023-03-07T18:05:33.598Z,12.98
2023-03-07T18:08:00.138Z,11.65
2023-03-07T18:10:27.126Z,9.48
2023-03-07T18:12:53.712Z,10.67
2023-03-07T18:15:21.256Z,18.10
2023-03-07T18:17:49.296Z,15.75
2023-03-07T18:20:18.367Z,18.48
2023-03-07T18:22:45.280Z,16.08
2023-03-07T18:25:14.495Z,8.53
2023-03-07T18:27:41.382Z,12.40
2023-03-07T18:30:08.728Z,9.45
2023-03-07T18:32:35.314Z,10.35
2023-03-07T18:35:02.543Z,9.15
2023-03-07T18:37:29.241Z,11.50
2023-03-07T18:39:55.939Z,9.68
2023-03-07T18:42:22.695Z,10.63
2023-03-07T18:44:49.234Z,10.98
2023-03-07T18:47:15.960Z,11.68
2023-03-07T18:49:42.512Z,15.97
2023-03-07T18:52:08.990Z,12.10
2023-03-07T18:54:35.526Z,13.73
2023-03-07T18:57:02.079Z,9.70
2023-03-07T18:59:28.630Z,9.75
2023-03-07T19:01:55.199Z,11.97
2023-03-07T19:04:22.477Z,9.48
2023-03-07T19:06:48.976Z,9.55
2023-03-07T19:09:17.782Z,11.43
2023-03-07T19:11:44.895Z,10.38
2023-03-07T19:14:11.869Z,11.23
2023-03-07T19:16:38.575Z,6.18
2023-03-07T19:19:05.347Z,7.88
2023-03-07T19:21:31.915Z,11.65
2023-03-07T19:24:00.288Z,12.68
2023-03-07T19:26:27.275Z,15.80
2023-03-07T19:28:55.316Z,8.73
2023-03-07T19:31:27.819Z,13.25
2023-03-07T19:33:55.134Z,12.02
2023-03-07T19:36:29.472Z,11.75
2023-03-07T19:38:56.979Z,12.43
2023-03-07T19:41:25.558Z,6.82
2023-03-07T19:43:52.600Z,10.20
2023-03-07T19:46:20.878Z,8.88
2023-03-07T19:48:47.794Z,9.65
2023-03-07T19:51:19.324Z,6.27
2023-03-07T19:53:46.741Z,8.40
2023-03-07T19:56:18.244Z,7.80
2023-03-07T19:58:44.792Z,8.60
2023-03-07T20:01:13.465Z,8.82
2023-03-07T20:03:40.336Z,11.53
2023-03-07T20:06:08.558Z,10.57
2023-03-07T20:08:35.611Z,10.55
2023-03-07T20:11:09.816Z,8.82
2023-03-07T20:13:36.654Z,7.28
2023-03-07T20:16:03.444Z,9.20
2023-03-07T20:18:29.926Z,6.68
2023-03-07T20:20:56.533Z,8.63
2023-03-07T20:23:23.113Z,7.65
2023-03-07T20:25:49.667Z,10.50
2023-03-07T20:28:16.702Z,11.63
2023-03-07T20:30:43.444Z,10.02
2023-03-07T20:33:10.060Z,9.88
2023-03-07T20:35:36.747Z,7.38
2023-03-07T20:38:03.252Z,8.93
2023-03-07T20:40:29.875Z,9.03
2023-03-07T20:42:56.542Z,8.55
2023-03-07T20:45:23.082Z,12.20
2023-03-07T20:47:49.654Z,9.68
2023-03-07T20:50:16.488Z,10.93
2023-03-07T20:52:43.005Z,10.70
2023-03-07T20:55:09.679Z,9.50
2023-03-07T20:57:36.203Z,12.95
2023-03-07T21:00:02.816Z,9.15
2023-03-07T21:02:29.317Z,8.90
2023-03-07T21:04:56.578Z,9.50
2023-03-07T21:07:23.067Z,9.35
2023-03-07T21:09:49.609Z,9.18
2023-03-07T21:12:17.355Z,8.00
2023-03-07T21:14:43.886Z,9.20
2023-03-07T21:17:10.605Z,9.43
2023-03-07T21:19:37.263Z,9.32
2023-03-07T21:22:03.793Z,8.20
2023-03-07T21:24:30.375Z,8.75
2023-03-07T21:26:56.975Z,7.72
2023-03-07T21:29:23.549Z,11.33
2023-03-07T21:31:50.160Z,9.93
2023-03-07T21:34:16.909Z,7.53
2023-03-07T21:36:43.486Z,9.95
2023-03-07T21:39:15.549Z,11.10
2023-03-07T21:41:42.227Z,7.77
2023-03-07T21:44:09.789Z,8.02
2023-03-07T21:46:36.306Z,4.35
2023-03-07T21:49:03.848Z,8.10
2023-03-07T21:51:30.404Z,8.27
2023-03-07T21:53:56.983Z,9.53
2023-03-07T21:56:23.938Z,9.48
2023-03-07T21:58:51.377Z,9.27
2023-03-07T22:01:21.276Z,9.93
2023-03-07T22:03:51.023Z,10.02
2023-03-07T22:06:17.682Z,7.73
2023-03-07T22:08:44.275Z,9.57
2023-03-07T22:11:12.650Z,10.30
2023-03-07T22:13:41.523Z,10.52
2023-03-07T22:16:12.350Z,6.78
2023-03-07T22:18:38.921Z,6.77
2023-03-07T22:21:15.147Z,7.20
2023-03-07T22:23:42.348Z,8.10
2023-03-07T22:26:11.036Z,8.25
2023-03-07T22:28:38.053Z,7.82
2023-03-07T22:31:07.105Z,6.07
2023-03-07T22:33:33.944Z,7.45
2023-03-07T22:36:02.831Z,7.35
2023-03-07T22:38:29.705Z,6.65
2023-03-07T22:41:07.047Z,8.65
2023-03-07T22:43:35.914Z,8.20
2023-03-07T22:46:03.441Z,9.77
2023-03-07T22:48:31.452Z,7.72
2023-03-07T22:50:58.610Z,8.90
2023-03-07T22:53:28.901Z,8.55
2023-03-07T22:55:55.455Z,9.83
2023-03-07T22:58:22.743Z,9.43
2023-03-07T23:00:49.234Z,10.75
2023-03-07T23:03:15.910Z,7.28
2023-03-07T23:05:42.597Z,9.13
2023-03-07T23:08:10.184Z,7.40
2023-03-07T23:10:36.920Z,9.90
2023-03-07T23:13:03.639Z,8.63
2023-03-07T23:15:30.370Z,6.93
2023-03-07T23:17:57.357Z,7.80
2023-03-07T23:20:24.606Z,7.77
2023-03-07T23:22:51.317Z,8.15
2023-03-07T23:25:18.200Z,10.68
2023-03-07T23:27:44.877Z,12.00
2023-03-07T23:30:11.832Z,13.27
2023-03-07T23:32:38.428Z,10.23
2023-03-07T23:35:05.457Z,8.35
2023-03-07T23:37:32.083Z,8.30
2023-03-07T23:39:58.587Z,11.05
2023-03-07T23:42:25.148Z,9.85
2023-03-07T23:44:51.615Z,8.87
2023-03-07T23:47:18.166Z,10.98
2023-03-07T23:49:44.753Z,9.20
2023-03-07T23:52:11.282Z,8.05
2023-03-07T23:54:37.769Z,10.02
2023-03-07T23:57:04.459Z,10.50
2023-03-07T23:59:31.002Z,10.23
